createdAt,value
2023-07-18T00:01:31.036Z,4.75
2023-07-18T00:03:58.702Z,5.18
2023-07-18T00:06:26.260Z,5.00
2023-07-18T00:08:53.751Z,4.82
2023-07-18T00:11:23.634Z,5.30
2023-07-18T00:13:51.390Z,5.45
2023-07-18T00:16:19.150Z,5.63
2023-07-18T00:18:46.787Z,5.00
2023-07-18T00:21:14.356Z,5.65
2023-07-18T00:23:41.647Z,5.43
2023-07-18T00:26:09.935Z,5.32
2023-07-18T00:28:39.080Z,6.05
2023-07-18T00:31:06.911Z,6.70
2023-07-18T00:33:34.248Z,7.30
2023-07-18T00:36:01.683Z,6.30
2023-07-18T00:38:29.291Z,6.50
2023-07-18T00:40:56.626Z,6.90
2023-07-18T00:43:24.019Z,6.13
2023-07-18T00:45:52.420Z,5.72
2023-07-18T00:48:19.739Z,6.30
2023-07-18T00:50:48.914Z,6.78
2023-07-18T00:53:16.473Z,6.85
2023-07-18T00:55:44.369Z,6.55
2023-07-18T00:58:11.984Z,6.80
2023-07-18T01:00:39.545Z,6.90
2023-07-18T01:03:10.955Z,7.53
2023-07-18T01:05:39.061Z,7.78
2023-07-18T01:08:06.517Z,7.32
2023-07-18T01:10:33.854Z,7.55
2023-07-18T01:13:02.176Z,7.55
2023-07-18T01:15:34.852Z,6.35
2023-07-18T01:18:08.398Z,6.68
2023-07-18T01:20:37.517Z,6.65
2023-07-18T01:23:05.517Z,6.20
2023-07-18T01:25:38.143Z,5.93
2023-07-18T01:28:07.815Z,5.70
2023-07-18T01:30:35.541Z,7.25
2023-07-18T01:33:04.596Z,8.55
2023-07-18T01:35:32.000Z,6.05
2023-07-18T01:38:00.089Z,6.07
2023-07-18T01:40:28.509Z,4.53
2023-07-18T01:42:58.775Z,5.25
2023-07-18T01:45:29.326Z,5.75
2023-07-18T01:47:58.149Z,6.18
2023-07-18T01:50:25.704Z,6.28
2023-07-18T01:52:53.294Z,7.53
2023-07-18T01:55:21.351Z,5.70
2023-07-18T01:57:50.622Z,5.57
2023-07-18T02:00:20.826Z,5.80
2023-07-18T02:02:51.621Z,5.38
2023-07-18T02:05:22.325Z,5.70
2023-07-18T02:07:50.919Z,5.75
2023-07-18T02:10:23.003Z,5.85
2023-07-18T02:12:52.824Z,5.68
2023-07-18T02:15:22.633Z,6.20
2023-07-18T02:17:50.793Z,7.22
2023-07-18T02:20:19.876Z,6.18
2023-07-18T02:22:47.972Z,6.30
2023-07-18T02:25:19.545Z,5.68
2023-07-18T02:27:47.705Z,5.32
2023-07-18T02:30:16.214Z,4.82
2023-07-18T02:32:45.065Z,5.40
2023-07-18T02:35:20.510Z,5.65
2023-07-18T02:37:48.868Z,5.80
2023-07-18T02:40:20.293Z,6.07
2023-07-18T02:42:47.909Z,6.50
2023-07-18T02:45:16.137Z,5.97
2023-07-18T02:47:44.433Z,5.90
2023-07-18T02:50:11.928Z,5.72
2023-07-18T02:52:40.433Z,5.20
2023-07-18T02:55:09.556Z,5.35
2023-07-18T02:57:37.376Z,5.10
2023-07-18T03:00:12.483Z,4.25
2023-07-18T03:05:08.649Z,6.00
2023-07-18T03:07:35.975Z,6.13
2023-07-18T03:10:08.122Z,5.78
2023-07-18T03:12:35.509Z,6.80
2023-07-18T03:15:03.630Z,5.03
2023-07-18T03:17:34.132Z,6.20
2023-07-18T03:20:01.644Z,5.88
2023-07-18T03:22:30.825Z,7.22
2023-07-18T03:25:06.738Z,5.75
2023-07-18T03:30:01.330Z,6.05
2023-07-18T03:32:31.292Z,6.40
2023-07-18T03:34:58.986Z,6.10
2023-07-18T03:37:31.491Z,7.10
2023-07-18T03:39:58.859Z,5.10
2023-07-18T03:42:26.224Z,5.38
2023-07-18T03:44:54.188Z,5.38
2023-07-18T03:47:22.845Z,5.07
2023-07-18T03:49:51.453Z,8.63
2023-07-18T03:52:18.761Z,10.02
2023-07-18T03:54:48.416Z,7.03
2023-07-18T03:57:16.107Z,6.80
2023-07-18T03:59:43.455Z,6.15
2023-07-18T04:02:11.159Z,7.15
2023-07-18T04:04:39.720Z,7.35
2023-07-18T04:07:07.591Z,6.90
2023-07-18T04:09:36.015Z,7.35
2023-07-18T04:12:03.623Z,6.50
2023-07-18T04:14:31.318Z,5.28
2023-07-18T04:16:59.903Z,5.80
2023-07-18T04:19:27.589Z,5.65
2023-07-18T04:21:54.966Z,6.30
2023-07-18T04:24:22.739Z,6.10
2023-07-18T04:26:50.150Z,5.40
2023-07-18T04:29:18.134Z,5.70
2023-07-18T04:31:45.959Z,5.38
2023-07-18T04:34:13.353Z,5.00
2023-07-18T04:36:40.667Z,4.80
2023-07-18T04:39:07.996Z,4.97
2023-07-18T04:41:49.472Z,4.55
2023-07-18T04:44:22.220Z,4.78
2023-07-18T04:46:49.826Z,5.30
2023-07-18T04:49:17.713Z,4.80
2023-07-18T04:51:45.310Z,5.18
2023-07-18T04:54:13.636Z,5.20
2023-07-18T04:56:41.329Z,4.55
2023-07-18T04:59:08.796Z,4.78
2023-07-18T05:01:38.165Z,4.70
2023-07-18T05:04:05.774Z,4.85
2023-07-18T05:06:38.373Z,4.75
2023-07-18T05:09:06.979Z,4.28
2023-07-18T05:11:35.563Z,4.88
2023-07-18T05:14:03.556Z,4.30
2023-07-18T05:16:31.664Z,4.32
2023-07-18T05:19:00.282Z,4.90
2023-07-18T05:21:27.564Z,4.15
2023-07-18T05:23:54.886Z,4.30
2023-07-18T05:26:22.826Z,4.10
2023-07-18T05:28:50.064Z,4.18
2023-07-18T05:31:18.618Z,4.68
2023-07-18T05:33:46.298Z,4.15
2023-07-18T05:36:14.052Z,4.10
2023-07-18T05:38:41.592Z,4.05
2023-07-18T05:41:08.820Z,4.00
2023-07-18T05:43:36.148Z,4.10
2023-07-18T05:46:03.458Z,4.00
2023-07-18T05:48:31.946Z,4.10
2023-07-18T05:51:01.360Z,4.20
2023-07-18T05:53:28.789Z,3.80
2023-07-18T05:55:56.543Z,4.05
2023-07-18T05:58:24.098Z,3.83
2023-07-18T06:00:51.766Z,3.80
2023-07-18T06:03:22.284Z,4.22
2023-07-18T06:05:58.899Z,3.88
2023-07-18T06:08:26.140Z,4.00
2023-07-18T06:11:00.666Z,3.85
2023-07-18T06:13:28.208Z,4.07
2023-07-18T06:15:55.698Z,3.63
2023-07-18T06:18:23.269Z,3.67
2023-07-18T06:20:51.399Z,4.10
2023-07-18T06:23:19.051Z,4.30
2023-07-18T06:25:46.588Z,3.90
2023-07-18T06:28:13.909Z,4.18
2023-07-18T06:30:41.309Z,4.30
2023-07-18T06:33:08.850Z,4.03
2023-07-18T06:35:36.485Z,3.70
2023-07-18T06:38:03.943Z,3.95
2023-07-18T06:40:31.623Z,3.60
2023-07-18T06:43:00.617Z,3.70
2023-07-18T06:45:28.046Z,3.70
2023-07-18T06:47:56.050Z,3.85
2023-07-18T06:50:23.272Z,3.80
2023-07-18T06:52:52.976Z,3.97
2023-07-18T06:55:20.337Z,3.50
2023-07-18T06:57:47.605Z,3.40
2023-07-18T07:00:15.628Z,3.65
2023-07-18T07:02:43.191Z,4.18
2023-07-18T07:05:10.576Z,3.47
2023-07-18T07:07:38.625Z,3.50
2023-07-18T07:10:10.351Z,3.72
2023-07-18T07:12:38.306Z,3.60
2023-07-18T07:15:06.273Z,3.58
2023-07-18T07:17:37.689Z,3.55
2023-07-18T07:20:13.909Z,3.42
2023-07-18T07:22:45.445Z,3.53
2023-07-18T07:25:14.663Z,3.60
2023-07-18T07:27:45.228Z,3.33
2023-07-18T07:30:19.679Z,3.42
2023-07-18T07:34:23.642Z,3.30
2023-07-18T07:36:51.972Z,3.75
2023-07-18T07:39:19.783Z,3.30
2023-07-18T07:41:47.108Z,3.75
2023-07-18T07:44:14.352Z,3.92
2023-07-18T07:46:42.660Z,3.50
2023-07-18T07:49:11.076Z,3.30
2023-07-18T07:51:39.063Z,3.30
2023-07-18T07:54:06.400Z,3.30
2023-07-18T07:56:33.747Z,3.40
2023-07-18T07:59:11.123Z,3.53
2023-07-18T08:01:39.802Z,3.30
2023-07-18T08:04:09.920Z,3.67
2023-07-18T08:06:37.262Z,3.10
2023-07-18T08:09:04.612Z,3.30
2023-07-18T08:11:32.081Z,3.13
2023-07-18T08:13:59.596Z,3.42
2023-07-18T08:16:28.527Z,3.38
2023-07-18T08:18:56.058Z,3.78
2023-07-18T08:21:23.351Z,2.78
2023-07-18T08:23:51.174Z,3.70
2023-07-18T08:26:18.506Z,3.20
2023-07-18T08:28:45.985Z,3.47
2023-07-18T08:31:13.498Z,2.80
2023-07-18T08:33:40.921Z,3.15
2023-07-18T08:36:09.243Z,3.33
2023-07-18T08:38:36.760Z,3.60
2023-07-18T08:41:05.034Z,3.40
2023-07-18T08:49:08.526Z,3.28
2023-07-18T08:51:36.288Z,3.20
2023-07-18T08:54:05.046Z,3.67
2023-07-18T08:59:20.034Z,3.60
2023-07-18T09:01:51.664Z,3.75
2023-07-18T09:04:20.303Z,3.67
2023-07-18T09:06:50.583Z,3.67
2023-07-18T09:09:19.647Z,3.60
2023-07-18T09:12:04.651Z,3.17
2023-07-18T09:14:34.292Z,3.30
2023-07-18T09:17:09.668Z,3.33
2023-07-18T09:19:50.154Z,3.22
2023-07-18T09:22:20.616Z,3.40
2023-07-18T09:24:49.421Z,3.50
2023-07-18T09:27:19.235Z,3.45
2023-07-18T09:29:49.471Z,3.47
2023-07-18T09:32:22.080Z,3.13
2023-07-18T09:35:00.828Z,3.30
2023-07-18T09:37:47.197Z,3.42
2023-07-18T09:40:19.744Z,3.42
2023-07-18T09:42:49.328Z,3.70
2023-07-18T09:45:18.368Z,3.20
2023-07-18T09:47:45.957Z,3.38
2023-07-18T09:50:15.049Z,3.17
2023-07-18T09:52:53.525Z,2.88
2023-07-18T09:55:26.125Z,3.22
2023-07-18T09:57:56.968Z,3.40
2023-07-18T10:00:26.626Z,3.30
2023-07-18T10:02:56.393Z,3.03
2023-07-18T10:05:24.795Z,2.90
2023-07-18T10:07:52.608Z,3.00
2023-07-18T10:10:20.742Z,3.25
2023-07-18T10:13:02.501Z,3.38
2023-07-18T10:15:30.436Z,3.30
2023-07-18T10:18:18.496Z,3.97
2023-07-18T10:21:02.265Z,3.88
2023-07-18T10:23:43.585Z,4.03
2023-07-18T10:26:11.112Z,3.50
2023-07-18T10:28:46.601Z,3.20
2023-07-18T10:31:31.573Z,3.10
2023-07-18T10:34:10.806Z,2.95
2023-07-18T10:37:02.173Z,2.65
2023-07-18T10:39:51.098Z,2.80
2023-07-18T10:42:27.828Z,3.05
2023-07-18T10:44:58.017Z,2.83
2023-07-18T10:47:26.741Z,2.90
2023-07-18T10:49:54.686Z,2.65
2023-07-18T10:52:22.760Z,2.78
2023-07-18T10:54:57.604Z,2.95
2023-07-18T10:57:34.333Z,3.03
2023-07-18T11:00:04.758Z,3.03
2023-07-18T11:02:40.329Z,2.47
2023-07-18T11:05:15.375Z,2.75
2023-07-18T11:07:49.229Z,2.97
2023-07-18T11:10:17.534Z,2.72
2023-07-18T11:12:44.989Z,2.70
2023-07-18T11:15:13.791Z,3.13
2023-07-18T11:17:43.774Z,2.90
2023-07-18T11:20:13.473Z,3.00
2023-07-18T11:22:42.182Z,2.90
2023-07-18T11:25:11.984Z,2.80
2023-07-18T11:27:39.545Z,3.30
2023-07-18T11:30:10.773Z,2.90
2023-07-18T11:32:46.905Z,2.72
2023-07-18T11:35:20.538Z,3.20
2023-07-18T11:37:53.325Z,2.83
2023-07-18T11:40:27.394Z,2.67
2023-07-18T11:42:57.728Z,2.58
2023-07-18T11:45:29.625Z,3.05
2023-07-18T11:47:59.626Z,2.90
2023-07-18T11:50:30.564Z,3.20
2023-07-18T11:52:59.991Z,3.05
2023-07-18T11:55:27.904Z,3.20
2023-07-18T11:57:57.205Z,3.20
2023-07-18T12:00:24.579Z,3.10
2023-07-18T12:02:53.717Z,3.20
2023-07-18T12:05:21.606Z,3.05
2023-07-18T12:07:50.423Z,3.15
2023-07-18T12:10:19.623Z,3.35
2023-07-18T12:12:47.255Z,3.30
2023-07-18T12:15:15.557Z,3.22
2023-07-18T12:17:43.057Z,3.22
2023-07-18T12:20:11.753Z,3.15
2023-07-18T12:22:39.389Z,3.15
2023-07-18T12:25:07.128Z,3.15
2023-07-18T12:27:34.717Z,3.38
2023-07-18T12:30:02.287Z,3.63
2023-07-18T12:32:33.529Z,3.92
2023-07-18T12:35:01.601Z,4.38
2023-07-18T12:37:33.196Z,4.07
2023-07-18T12:40:00.739Z,3.72
2023-07-18T12:42:28.490Z,3.60
2023-07-18T12:44:55.913Z,4.00
2023-07-18T12:47:23.809Z,3.55
2023-07-18T12:52:21.961Z,3.28
2023-07-18T12:54:49.416Z,3.72
2023-07-18T12:57:17.173Z,3.25
2023-07-18T12:59:45.033Z,3.22
2023-07-18T13:02:14.814Z,3.00
2023-07-18T13:04:42.645Z,3.03
2023-07-18T13:07:11.325Z,3.42
2023-07-18T13:09:39.857Z,3.40
2023-07-18T13:12:10.900Z,3.95
2023-07-18T13:14:38.502Z,3.92
2023-07-18T13:17:06.487Z,3.97
2023-07-18T13:19:33.785Z,3.42
2023-07-18T13:22:01.321Z,4.30
2023-07-18T13:24:28.832Z,4.75
2023-07-18T13:26:56.942Z,4.63
2023-07-18T13:29:24.229Z,3.92
2023-07-18T13:31:51.753Z,3.65
2023-07-18T13:34:21.008Z,3.25
2023-07-18T13:36:48.464Z,3.78
2023-07-18T13:39:17.040Z,5.95
2023-07-18T13:41:44.636Z,5.32
2023-07-18T13:44:12.237Z,5.38
2023-07-18T13:46:39.567Z,4.70
2023-07-18T13:49:07.101Z,4.80
2023-07-18T13:51:34.714Z,4.45
2023-07-18T13:54:02.324Z,4.03
2023-07-18T13:56:29.858Z,3.65
2023-07-18T13:58:57.598Z,3.85
2023-07-18T14:01:25.024Z,4.10
2023-07-18T14:03:53.406Z,4.95
2023-07-18T14:06:22.488Z,5.70
2023-07-18T14:08:52.756Z,5.03
2023-07-18T14:11:28.326Z,4.28
2023-07-18T14:14:00.261Z,5.13
2023-07-18T14:16:28.082Z,4.30
2023-07-18T14:18:58.010Z,3.55
2023-07-18T14:21:26.295Z,3.70
2023-07-18T14:24:01.282Z,3.53
2023-07-18T14:26:30.317Z,3.63
2023-07-18T14:28:58.259Z,4.07
2023-07-18T14:31:25.977Z,3.92
2023-07-18T14:34:05.370Z,4.00
2023-07-18T14:36:34.016Z,3.72
2023-07-18T14:39:01.486Z,3.50
2023-07-18T14:41:29.861Z,3.72
2023-07-18T14:43:57.582Z,3.10
2023-07-18T14:46:25.219Z,3.10
2023-07-18T14:48:53.572Z,2.70
2023-07-18T14:51:21.698Z,2.50
2023-07-18T14:53:49.337Z,2.90
2023-07-18T14:56:16.738Z,2.22
2023-07-18T14:58:44.228Z,2.33
2023-07-18T15:01:11.542Z,2.05
2023-07-18T15:03:38.994Z,2.15
2023-07-18T15:06:06.569Z,2.20
2023-07-18T15:08:35.275Z,2.33
2023-07-18T15:11:03.706Z,2.08
2023-07-18T15:13:31.262Z,2.00
2023-07-18T15:15:58.594Z,1.98
2023-07-18T15:18:26.125Z,2.30
2023-07-18T15:20:53.438Z,2.20
2023-07-18T15:23:21.710Z,2.17
2023-07-18T15:25:49.235Z,2.25
2023-07-18T15:28:18.484Z,2.38
2023-07-18T15:30:45.852Z,2.20
2023-07-18T15:33:26.685Z,2.95
2023-07-18T15:35:55.634Z,2.42
2023-07-18T15:38:23.142Z,2.58
2023-07-18T15:40:50.527Z,1.90
2023-07-18T15:43:17.704Z,2.30
2023-07-18T15:45:52.354Z,2.08
2023-07-18T15:48:19.859Z,2.45
2023-07-18T15:50:48.693Z,2.30
2023-07-18T15:53:16.341Z,2.33
2023-07-18T15:55:44.119Z,2.40
2023-07-18T15:58:11.539Z,2.38
2023-07-18T16:00:39.668Z,2.45
2023-07-18T16:03:10.141Z,2.58
2023-07-18T16:05:37.839Z,2.40
2023-07-18T16:08:05.441Z,2.53
2023-07-18T16:10:32.840Z,2.78
2023-07-18T16:13:00.252Z,2.72
2023-07-18T16:15:27.616Z,2.88
2023-07-18T16:17:54.873Z,2.72
2023-07-18T16:20:22.151Z,2.90
2023-07-18T16:22:50.402Z,2.60
2023-07-18T16:25:17.917Z,2.67
2023-07-18T16:27:48.008Z,2.80
2023-07-18T16:30:15.654Z,2.70
2023-07-18T16:32:43.299Z,2.78
2023-07-18T16:35:10.843Z,2.42
2023-07-18T16:37:38.275Z,2.40
2023-07-18T16:40:06.776Z,3.00
2023-07-18T16:42:34.339Z,2.85
2023-07-18T16:45:01.838Z,2.53
2023-07-18T16:47:32.760Z,2.80
2023-07-18T16:50:01.645Z,4.00
2023-07-18T16:52:32.325Z,3.83
2023-07-18T16:54:59.767Z,3.13
2023-07-18T16:57:27.195Z,3.20
2023-07-18T16:59:54.611Z,2.95
2023-07-18T17:02:21.955Z,3.47
2023-07-18T17:04:49.603Z,3.35
2023-07-18T17:07:17.560Z,3.00
2023-07-18T17:09:45.154Z,3.00
2023-07-18T17:12:13.761Z,3.13
2023-07-18T17:14:41.064Z,2.95
2023-07-18T17:17:08.832Z,3.20
2023-07-18T17:19:48.225Z,2.60
2023-07-18T17:22:23.542Z,2.83
2023-07-18T17:24:52.078Z,2.90
2023-07-18T17:27:19.617Z,2.63
2023-07-18T17:29:46.937Z,2.83
2023-07-18T17:32:14.586Z,2.63
2023-07-18T17:34:42.461Z,2.80
2023-07-18T17:37:09.761Z,2.90
2023-07-18T17:39:37.386Z,3.10
2023-07-18T17:42:09.743Z,2.70
2023-07-18T17:44:37.633Z,2.88
2023-07-18T17:47:05.550Z,2.65
2023-07-18T17:49:32.972Z,2.45
2023-07-18T17:52:00.218Z,2.67
2023-07-18T17:54:29.045Z,2.80
2023-07-18T17:56:56.431Z,2.53
2023-07-18T17:59:23.995Z,3.10
2023-07-18T18:01:51.394Z,3.28
2023-07-18T18:04:19.574Z,2.97
2023-07-18T18:06:48.285Z,3.30
2023-07-18T18:09:15.508Z,3.15
2023-07-18T18:11:42.843Z,2.72
2023-07-18T18:14:10.162Z,3.60
2023-07-18T18:16:37.697Z,3.30
2023-07-18T18:19:04.902Z,3.13
2023-07-18T18:21:33.372Z,3.25
2023-07-18T18:24:00.680Z,3.60
2023-07-18T18:26:28.169Z,3.75
2023-07-18T18:28:56.105Z,3.85
2023-07-18T18:31:23.969Z,3.30
2023-07-18T18:33:51.953Z,3.60
2023-07-18T18:36:24.212Z,3.30
2023-07-18T18:38:52.697Z,3.50
2023-07-18T18:41:21.533Z,3.63
2023-07-18T18:43:50.837Z,3.50
2023-07-18T18:46:18.644Z,4.18
2023-07-18T18:48:46.074Z,4.97
2023-07-18T18:51:13.531Z,3.70
2023-07-18T18:53:40.926Z,3.45
2023-07-18T18:56:08.620Z,3.95
2023-07-18T18:58:36.801Z,3.40
2023-07-18T19:01:07.437Z,3.47
2023-07-18T19:03:36.000Z,3.90
2023-07-18T19:06:03.691Z,3.45
2023-07-18T19:08:31.038Z,3.50
2023-07-18T19:11:07.390Z,3.65
2023-07-18T19:13:37.215Z,3.80
2023-07-18T19:16:05.132Z,3.83
2023-07-18T19:18:32.453Z,3.42
2023-07-18T19:21:00.004Z,3.45
2023-07-18T19:23:27.642Z,3.50
2023-07-18T19:25:56.410Z,3.10
2023-07-18T19:28:24.681Z,3.30
2023-07-18T19:30:52.167Z,3.30
2023-07-18T19:33:19.404Z,3.25
2023-07-18T19:35:46.828Z,3.50
2023-07-18T19:38:14.190Z,3.80
2023-07-18T19:40:42.482Z,3.70
2023-07-18T19:43:10.321Z,3.03
2023-07-18T19:45:37.688Z,3.67
2023-07-18T19:48:05.738Z,3.40
2023-07-18T19:50:33.233Z,3.33
2023-07-18T19:53:00.862Z,3.47
2023-07-18T19:55:28.635Z,3.65
2023-07-18T19:57:56.950Z,4.03
2023-07-18T20:00:24.559Z,3.78
2023-07-18T20:02:51.920Z,3.80
2023-07-18T20:05:19.257Z,4.22
2023-07-18T20:07:46.770Z,4.20
2023-07-18T20:10:14.353Z,4.13
2023-07-18T20:12:41.709Z,3.55
2023-07-18T20:15:11.689Z,4.18
2023-07-18T20:17:39.066Z,4.00
2023-07-18T20:20:07.508Z,3.95
2023-07-18T20:22:34.867Z,3.55
2023-07-18T20:25:02.160Z,3.90
2023-07-18T20:27:36.995Z,3.42
2023-07-18T20:30:05.815Z,3.50
2023-07-18T20:32:36.532Z,3.80
2023-07-18T20:35:04.125Z,3.50
2023-07-18T20:37:34.155Z,3.70
2023-07-18T20:40:05.626Z,3.60
2023-07-18T20:42:36.644Z,3.65
2023-07-18T20:45:06.202Z,3.90
2023-07-18T20:47:36.387Z,3.80
2023-07-18T20:50:05.033Z,3.70
2023-07-18T20:52:32.628Z,4.65
2023-07-18T20:55:00.062Z,3.60
2023-07-18T20:57:27.411Z,4.20
2023-07-18T20:59:54.810Z,4.57
2023-07-18T21:02:22.260Z,3.92
2023-07-18T21:04:49.966Z,4.22
2023-07-18T21:07:17.521Z,4.40
2023-07-18T21:09:45.528Z,4.90
2023-07-18T21:12:12.767Z,3.92
2023-07-18T21:14:40.222Z,5.95
2023-07-18T21:17:07.461Z,5.85
2023-07-18T21:19:34.688Z,4.68
2023-07-18T21:22:02.321Z,4.47
2023-07-18T21:24:29.661Z,4.30
2023-07-18T21:26:57.597Z,4.50
2023-07-18T21:29:25.467Z,4.13
2023-07-18T21:31:55.723Z,4.85
2023-07-18T21:34:24.532Z,4.10
2023-07-18T21:36:52.103Z,4.10
2023-07-18T21:39:19.427Z,3.88
2023-07-18T21:41:46.795Z,4.22
2023-07-18T21:44:14.312Z,4.35
2023-07-18T21:46:41.722Z,4.35
2023-07-18T21:49:10.184Z,4.10
2023-07-18T21:51:41.342Z,4.30
2023-07-18T21:54:10.410Z,4.05
2023-07-18T21:56:37.835Z,3.75
2023-07-18T21:59:05.250Z,4.30
2023-07-18T22:01:32.722Z,3.90
2023-07-18T22:04:00.401Z,4.75
2023-07-18T22:06:27.832Z,4.57
2023-07-18T22:08:55.357Z,4.03
2023-07-18T22:11:23.039Z,5.07
2023-07-18T22:13:53.606Z,5.03
2023-07-18T22:16:21.016Z,4.88
2023-07-18T22:18:48.544Z,4.07
2023-07-18T22:21:16.307Z,4.60
2023-07-18T22:23:43.678Z,4.50
2023-07-18T22:26:14.551Z,4.38
2023-07-18T22:28:43.719Z,4.05
2023-07-18T22:31:13.290Z,3.88
2023-07-18T22:33:41.303Z,4.75
2023-07-18T22:36:09.377Z,4.60
2023-07-18T22:38:37.058Z,4.13
2023-07-18T22:41:04.641Z,4.50
2023-07-18T22:43:32.160Z,5.22
2023-07-18T22:45:59.449Z,4.53
2023-07-18T22:48:27.091Z,4.60
2023-07-18T22:50:54.335Z,4.72
2023-07-18T22:53:21.983Z,4.18
2023-07-18T22:55:49.839Z,4.53
2023-07-18T22:58:17.925Z,4.43
2023-07-18T23:00:45.227Z,4.60
2023-07-18T23:03:13.822Z,4.60
2023-07-18T23:05:41.719Z,4.20
2023-07-18T23:08:09.139Z,4.10
2023-07-18T23:10:36.429Z,4.20
2023-07-18T23:13:03.869Z,4.47
2023-07-18T23:15:31.431Z,4.35
2023-07-18T23:17:59.098Z,4.60
2023-07-18T23:20:26.552Z,4.93
2023-07-18T23:22:54.600Z,4.88
2023-07-18T23:25:22.083Z,3.72
2023-07-18T23:27:49.580Z,4.70
2023-07-18T23:30:17.100Z,5.10
2023-07-18T23:32:44.738Z,4.78
2023-07-18T23:35:12.344Z,5.10
2023-07-18T23:37:39.988Z,4.63
2023-07-18T23:40:08.202Z,4.72
2023-07-18T23:42:35.542Z,4.70
2023-07-18T23:45:02.866Z,4.10
2023-07-18T23:47:31.759Z,4.63
2023-07-18T23:49:59.745Z,4.80
2023-07-18T23:52:27.439Z,4.38
2023-07-18T23:54:54.814Z,4.80
2023-07-18T23:57:23.143Z,4.70
2023-07-18T23:59:50.792Z,4.40
